หน้าหลัก
METAR-TAF:

METAR-TAF

ท่าอากาศยาน :

กาแล, ฝรั่งเศส

ละติจูด: 50-57-39N, ลองจิจูด: 001-57-05E, ความสูง: 4 ม.

การสังเกตสภาพอากาศปัจจุบัน

รายงานได้ทำขึ้นเมื่อ 4 ชั่วโมงและ 2 นาทีที่แล้ว ณ เวลา 20:00 UTC
ลม 7 นอตจากตะวันออกเฉียงเหนือ
อุณหภูมิ 15°C
ความชื้น 94%
ความกดอากาศ 1014 hPa
ทัศนวิสัย 10 กม. หรือมากกว่า
ไม่มีเมฆต่ำกว่า 1,500 ม. และไม่มีเมฆคิวมูโลนิมบัส

METAR: LFAC 182000Z AUTO 04007KT CAVOK 15/14 Q1014

เวลา: 02:02 (00:02 UTC)


TAF: หายไป

สังเกตการณ์สภาพอากาศและพยากรณ์อากาศของสนามบินมากกว่า 4000 แห่ง (รายงาน METAR และ TAF).

สถานีที่ดูได้จะแสดงไว้ด้วยจุดสีเหลืองและสีแดงบนแผนที่.

เลื่อนเมาส์ไปเหนือจุดเพื่อดูชื่อสถานี.

แล้วคลิกเพื่อดูสังเกตการณ์และการพยากรณ์สภาพอากาศ.

ในการเปลี่ยนแผนที่: คลิกที่ปุ่มสีเขียวที่มีกากบาทสีดำเพื่อซูมเข้า; ที่ปุ่มสีเขียวที่มีขีดเพื่อซูมออก; หรือที่ลูกศรสีเขียวเพื่อไปยังแผนที่ที่อยู่ติดกัน.


METAR-TAF: